sensor_id;sensor_type;location;lat;lon;timestamp;P1;durP1;ratioP1;P2;durP2;ratioP2
43996;SDS011;34318;45.818;15.964;2023-12-07T00:01:11;10.88;;;9.88;;
43996;SDS011;34318;45.818;15.964;2023-12-07T00:03:38;11.13;;;9.98;;
43996;SDS011;34318;45.818;15.964;2023-12-07T00:06:05;11.73;;;10.63;;
43996;SDS011;34318;45.818;15.964;2023-12-07T00:08:33;12.07;;;10.02;;
43996;SDS011;34318;45.818;15.964;2023-12-07T00:11:00;13.82;;;10.63;;
43996;SDS011;34318;45.818;15.964;2023-12-07T00:13:27;10.38;;;9.38;;
43996;SDS011;34318;45.818;15.964;2023-12-07T00:15:55;11.10;;;9.55;;
43996;SDS011;34318;45.818;15.964;2023-12-07T00:18:22;11.48;;;9.77;;
43996;SDS011;34318;45.818;15.964;2023-12-07T00:20:50;11.20;;;10.02;;
43996;SDS011;34318;45.818;15.964;2023-12-07T00:23:17;10.57;;;9.45;;
43996;SDS011;34318;45.818;15.964;2023-12-07T00:25:45;10.32;;;9.32;;
43996;SDS011;34318;45.818;15.964;2023-12-07T00:28:12;10.10;;;9.10;;
43996;SDS011;34318;45.818;15.964;2023-12-07T00:30:39;10.88;;;9.75;;
43996;SDS011;34318;45.818;15.964;2023-12-07T00:33:08;11.68;;;9.43;;
43996;SDS011;34318;45.818;15.964;2023-12-07T00:35:36;11.73;;;9.32;;
43996;SDS011;34318;45.818;15.964;2023-12-07T00:38:03;10.23;;;9.23;;
43996;SDS011;34318;45.818;15.964;2023-12-07T00:40:32;10.48;;;9.05;;
43996;SDS011;34318;45.818;15.964;2023-12-07T00:43:03;10.90;;;9.18;;
43996;SDS011;34318;45.818;15.964;2023-12-07T00:45:30;9.82;;;8.82;;
43996;SDS011;34318;45.818;15.964;2023-12-07T00:47:57;10.13;;;9.13;;
43996;SDS011;34318;45.818;15.964;2023-12-07T00:50:25;9.82;;;8.85;;
43996;SDS011;34318;45.818;15.964;2023-12-07T00:52:52;9.65;;;8.68;;
43996;SDS011;34318;45.818;15.964;2023-12-07T00:55:20;10.35;;;9.35;;
43996;SDS011;34318;45.818;15.964;2023-12-07T00:57:47;9.52;;;8.63;;
43996;SDS011;34318;45.818;15.964;2023-12-07T01:00:15;9.35;;;8.48;;
43996;SDS011;34318;45.818;15.964;2023-12-07T01:02:42;8.57;;;7.78;;
43996;SDS011;34318;45.818;15.964;2023-12-07T01:05:09;9.77;;;8.75;;
43996;SDS011;34318;45.818;15.964;2023-12-07T01:07:37;8.90;;;8.05;;
43996;SDS011;34318;45.818;15.964;2023-12-07T01:10:04;9.60;;;8.70;;
43996;SDS011;34318;45.818;15.964;2023-12-07T01:12:32;14.80;;;8.50;;
43996;SDS011;34318;45.818;15.964;2023-12-07T01:14:59;9.48;;;8.50;;
43996;SDS011;34318;45.818;15.964;2023-12-07T01:17:27;9.88;;;8.63;;
43996;SDS011;34318;45.818;15.964;2023-12-07T01:19:55;10.10;;;8.32;;
43996;SDS011;34318;45.818;15.964;2023-12-07T01:22:22;9.35;;;8.45;;
43996;SDS011;34318;45.818;15.964;2023-12-07T01:24:50;10.25;;;7.82;;
43996;SDS011;34318;45.818;15.964;2023-12-07T01:27:17;8.93;;;8.13;;
43996;SDS011;34318;45.818;15.964;2023-12-07T01:29:45;9.50;;;8.57;;
43996;SDS011;34318;45.818;15.964;2023-12-07T01:32:12;9.43;;;8.60;;
43996;SDS011;34318;45.818;15.964;2023-12-07T01:34:40;9.48;;;8.40;;
43996;SDS011;34318;45.818;15.964;2023-12-07T01:37:08;9.77;;;8.75;;
43996;SDS011;34318;45.818;15.964;2023-12-07T01:39:35;11.00;;;8.80;;
43996;SDS011;34318;45.818;15.964;2023-12-07T01:42:03;10.98;;;8.27;;
43996;SDS011;34318;45.818;15.964;2023-12-07T01:44:30;9.48;;;8.57;;
43996;SDS011;34318;45.818;15.964;2023-12-07T01:46:57;9.45;;;8.38;;
43996;SDS011;34318;45.818;15.964;2023-12-07T01:49:25;10.90;;;8.55;;
43996;SDS011;34318;45.818;15.964;2023-12-07T01:51:52;9.00;;;8.23;;
43996;SDS011;34318;45.818;15.964;2023-12-07T01:54:20;8.55;;;7.72;;
43996;SDS011;34318;45.818;15.964;2023-12-07T01:56:47;9.38;;;8.48;;
43996;SDS011;34318;45.818;15.964;2023-12-07T01:59:15;7.97;;;7.18;;
43996;SDS011;34318;45.818;15.964;2023-12-07T02:01:42;8.98;;;8.18;;
43996;SDS011;34318;45.818;15.964;2023-12-07T02:04:10;8.55;;;7.65;;
43996;SDS011;34318;45.818;15.964;2023-12-07T02:06:37;8.32;;;7.53;;
43996;SDS011;34318;45.818;15.964;2023-12-07T02:09:05;9.73;;;8.00;;
43996;SDS011;34318;45.818;15.964;2023-12-07T02:11:32;8.73;;;7.93;;
43996;SDS011;34318;45.818;15.964;2023-12-07T02:13:59;8.52;;;7.72;;
43996;SDS011;34318;45.818;15.964;2023-12-07T02:16:29;8.55;;;7.85;;
43996;SDS011;34318;45.818;15.964;2023-12-07T02:21:56;9.20;;;8.00;;
43996;SDS011;34318;45.818;15.964;2023-12-07T02:24:25;8.75;;;7.95;;
43996;SDS011;34318;45.818;15.964;2023-12-07T02:26:57;9.85;;;7.53;;
43996;SDS011;34318;45.818;15.964;2023-12-07T02:29:24;8.38;;;7.40;;
43996;SDS011;34318;45.818;15.964;2023-12-07T02:31:52;7.75;;;7.05;;
43996;SDS011;34318;45.818;15.964;2023-12-07T02:34:19;7.95;;;7.15;;
43996;SDS011;34318;45.818;15.964;2023-12-07T02:36:47;8.77;;;7.75;;
43996;SDS011;34318;45.818;15.964;2023-12-07T02:39:15;8.60;;;7.80;;
43996;SDS011;34318;45.818;15.964;2023-12-07T02:41:43;8.43;;;7.63;;
43996;SDS011;34318;45.818;15.964;2023-12-07T02:44:12;9.35;;;8.45;;
43996;SDS011;34318;45.818;15.964;2023-12-07T02:46:39;8.57;;;7.78;;
43996;SDS011;34318;45.818;15.964;2023-12-07T02:49:06;8.95;;;8.25;;
43996;SDS011;34318;45.818;15.964;2023-12-07T02:51:34;10.80;;;8.27;;
43996;SDS011;34318;45.818;15.964;2023-12-07T02:54:01;8.02;;;7.32;;
43996;SDS011;34318;45.818;15.964;2023-12-07T02:56:29;8.02;;;7.32;;
43996;SDS011;34318;45.818;15.964;2023-12-07T02:58:56;8.15;;;7.35;;
43996;SDS011;34318;45.818;15.964;2023-12-07T03:01:24;8.38;;;7.63;;
43996;SDS011;34318;45.818;15.964;2023-12-07T03:03:52;8.50;;;7.80;;
43996;SDS011;34318;45.818;15.964;2023-12-07T03:06:20;8.52;;;7.75;;
43996;SDS011;34318;45.818;15.964;2023-12-07T03:08:47;8.35;;;7.65;;
43996;SDS011;34318;45.818;15.964;2023-12-07T03:11:14;10.02;;;9.02;;
43996;SDS011;34318;45.818;15.964;2023-12-07T03:13:42;9.23;;;8.43;;
43996;SDS011;34318;45.818;15.964;2023-12-07T03:16:09;8.23;;;7.53;;
43996;SDS011;34318;45.818;15.964;2023-12-07T03:18:36;8.63;;;7.93;;
43996;SDS011;34318;45.818;15.964;2023-12-07T03:21:04;9.05;;;8.20;;
43996;SDS011;34318;45.818;15.964;2023-12-07T03:23:31;8.65;;;7.85;;
43996;SDS011;34318;45.818;15.964;2023-12-07T03:25:59;8.57;;;7.72;;
43996;SDS011;34318;45.818;15.964;2023-12-07T03:28:26;8.70;;;7.80;;
43996;SDS011;34318;45.818;15.964;2023-12-07T03:30:53;8.80;;;8.00;;
43996;SDS011;34318;45.818;15.964;2023-12-07T03:33:21;9.23;;;8.35;;
43996;SDS011;34318;45.818;15.964;2023-12-07T03:35:48;8.52;;;7.68;;
43996;SDS011;34318;45.818;15.964;2023-12-07T03:38:15;9.15;;;8.23;;
43996;SDS011;34318;45.818;15.964;2023-12-07T03:40:43;9.35;;;8.48;;
43996;SDS011;34318;45.818;15.964;2023-12-07T03:43:15;9.27;;;8.38;;
43996;SDS011;34318;45.818;15.964;2023-12-07T03:45:43;8.23;;;7.53;;
43996;SDS011;34318;45.818;15.964;2023-12-07T03:48:10;8.80;;;8.00;;
43996;SDS011;34318;45.818;15.964;2023-12-07T03:50:37;8.60;;;7.80;;
43996;SDS011;34318;45.818;15.964;2023-12-07T03:53:05;8.45;;;7.65;;
43996;SDS011;34318;45.818;15.964;2023-12-07T03:55:32;9.65;;;8.77;;
43996;SDS011;34318;45.818;15.964;2023-12-07T03:57:59;9.43;;;8.43;;
43996;SDS011;34318;45.818;15.964;2023-12-07T04:00:27;8.80;;;7.90;;
43996;SDS011;34318;45.818;15.964;2023-12-07T04:02:54;8.95;;;8.15;;
43996;SDS011;34318;45.818;15.964;2023-12-07T04:05:22;9.25;;;8.45;;
43996;SDS011;34318;45.818;15.964;2023-12-07T04:07:49;9.70;;;8.80;;
43996;SDS011;34318;45.818;15.964;2023-12-07T04:10:16;9.95;;;9.05;;
43996;SDS011;34318;45.818;15.964;2023-12-07T04:12:43;9.60;;;8.70;;
43996;SDS011;34318;45.818;15.964;2023-12-07T04:15:11;9.23;;;8.43;;
43996;SDS011;34318;45.818;15.964;2023-12-07T04:17:42;9.35;;;8.50;;
43996;SDS011;34318;45.818;15.964;2023-12-07T04:20:09;9.35;;;8.50;;
43996;SDS011;34318;45.818;15.964;2023-12-07T04:22:37;9.77;;;8.88;;
43996;SDS011;34318;45.818;15.964;2023-12-07T04:25:05;8.63;;;7.82;;
43996;SDS011;34318;45.818;15.964;2023-12-07T04:27:33;9.77;;;8.93;;
43996;SDS011;34318;45.818;15.964;2023-12-07T04:30:00;9.55;;;8.65;;
43996;SDS011;34318;45.818;15.964;2023-12-07T04:32:28;9.60;;;8.63;;
43996;SDS011;34318;45.818;15.964;2023-12-07T04:34:56;8.98;;;8.25;;
43996;SDS011;34318;45.818;15.964;2023-12-07T04:37:23;9.60;;;8.73;;
43996;SDS011;34318;45.818;15.964;2023-12-07T04:39:50;9.52;;;8.63;;
43996;SDS011;34318;45.818;15.964;2023-12-07T04:42:18;9.63;;;8.82;;
43996;SDS011;34318;45.818;15.964;2023-12-07T04:44:45;9.27;;;8.45;;
43996;SDS011;34318;45.818;15.964;2023-12-07T04:47:12;9.32;;;8.43;;
43996;SDS011;34318;45.818;15.964;2023-12-07T04:49:39;9.07;;;8.27;;
43996;SDS011;34318;45.818;15.964;2023-12-07T04:52:07;9.18;;;8.27;;
43996;SDS011;34318;45.818;15.964;2023-12-07T04:54:34;9.55;;;8.70;;
43996;SDS011;34318;45.818;15.964;2023-12-07T04:57:02;8.70;;;8.00;;
43996;SDS011;34318;45.818;15.964;2023-12-07T04:59:29;8.80;;;8.00;;
43996;SDS011;34318;45.818;15.964;2023-12-07T05:01:56;9.55;;;8.75;;
43996;SDS011;34318;45.818;15.964;2023-12-07T05:04:24;9.85;;;8.77;;
43996;SDS011;34318;45.818;15.964;2023-12-07T05:06:51;9.05;;;8.30;;
43996;SDS011;34318;45.818;15.964;2023-12-07T05:09:18;8.70;;;7.95;;
43996;SDS011;34318;45.818;15.964;2023-12-07T05:11:45;9.68;;;8.77;;
43996;SDS011;34318;45.818;15.964;2023-12-07T05:14:13;9.65;;;8.75;;
43996;SDS011;34318;45.818;15.964;2023-12-07T05:16:41;10.93;;;9.82;;
43996;SDS011;34318;45.818;15.964;2023-12-07T05:19:08;9.63;;;8.80;;
43996;SDS011;34318;45.818;15.964;2023-12-07T05:21:37;9.73;;;8.73;;
43996;SDS011;34318;45.818;15.964;2023-12-07T05:24:04;9.95;;;8.95;;
43996;SDS011;34318;45.818;15.964;2023-12-07T05:26:32;9.10;;;8.30;;
43996;SDS011;34318;45.818;15.964;2023-12-07T05:28:59;9.18;;;8.27;;
43996;SDS011;34318;45.818;15.964;2023-12-07T05:31:26;8.63;;;7.82;;
43996;SDS011;34318;45.818;15.964;2023-12-07T05:33:54;9.10;;;8.30;;
43996;SDS011;34318;45.818;15.964;2023-12-07T05:36:22;9.75;;;8.68;;
43996;SDS011;34318;45.818;15.964;2023-12-07T05:38:49;11.65;;;8.40;;
43996;SDS011;34318;45.818;15.964;2023-12-07T05:41:16;8.65;;;7.85;;
43996;SDS011;34318;45.818;15.964;2023-12-07T05:43:44;9.32;;;8.43;;
43996;SDS011;34318;45.818;15.964;2023-12-07T05:46:11;8.88;;;7.97;;
43996;SDS011;34318;45.818;15.964;2023-12-07T05:48:38;11.70;;;8.80;;
43996;SDS011;34318;45.818;15.964;2023-12-07T05:51:11;9.25;;;8.32;;
43996;SDS011;34318;45.818;15.964;2023-12-07T05:53:38;10.13;;;7.28;;
43996;SDS011;34318;45.818;15.964;2023-12-07T05:56:06;10.10;;;8.52;;
43996;SDS011;34318;45.818;15.964;2023-12-07T05:58:34;8.98;;;8.18;;
43996;SDS011;34318;45.818;15.964;2023-12-07T06:01:01;10.27;;;7.68;;
43996;SDS011;34318;45.818;15.964;2023-12-07T06:03:29;8.77;;;7.97;;
43996;SDS011;34318;45.818;15.964;2023-12-07T06:05:58;7.88;;;7.18;;
43996;SDS011;34318;45.818;15.964;2023-12-07T06:08:25;8.50;;;7.70;;
43996;SDS011;34318;45.818;15.964;2023-12-07T06:10:52;9.90;;;7.57;;
43996;SDS011;34318;45.818;15.964;2023-12-07T06:13:20;8.70;;;7.78;;
43996;SDS011;34318;45.818;15.964;2023-12-07T06:15:47;8.32;;;7.53;;
43996;SDS011;34318;45.818;15.964;2023-12-07T06:18:14;9.15;;;7.50;;
43996;SDS011;34318;45.818;15.964;2023-12-07T06:20:44;8.57;;;7.78;;
43996;SDS011;34318;45.818;15.964;2023-12-07T06:23:11;8.80;;;7.40;;
43996;SDS011;34318;45.818;15.964;2023-12-07T06:25:39;8.75;;;7.20;;
43996;SDS011;34318;45.818;15.964;2023-12-07T06:28:07;8.70;;;7.80;;
43996;SDS011;34318;45.818;15.964;2023-12-07T06:30:34;7.55;;;6.82;;
43996;SDS011;34318;45.818;15.964;2023-12-07T06:33:01;9.15;;;7.63;;
43996;SDS011;34318;45.818;15.964;2023-12-07T06:35:29;9.35;;;6.65;;
43996;SDS011;34318;45.818;15.964;2023-12-07T06:37:56;10.73;;;6.53;;
43996;SDS011;34318;45.818;15.964;2023-12-07T06:40:24;9.07;;;6.57;;
43996;SDS011;34318;45.818;15.964;2023-12-07T06:42:51;7.60;;;6.25;;
43996;SDS011;34318;45.818;15.964;2023-12-07T06:45:18;10.27;;;5.85;;
43996;SDS011;34318;45.818;15.964;2023-12-07T06:47:46;6.55;;;5.93;;
43996;SDS011;34318;45.818;15.964;2023-12-07T06:50:13;8.20;;;7.40;;
43996;SDS011;34318;45.818;15.964;2023-12-07T06:52:40;10.25;;;7.78;;
43996;SDS011;34318;45.818;15.964;2023-12-07T06:55:08;7.63;;;6.80;;
43996;SDS011;34318;45.818;15.964;2023-12-07T06:57:38;11.30;;;7.30;;
43996;SDS011;34318;45.818;15.964;2023-12-07T07:00:06;8.82;;;6.43;;
43996;SDS011;34318;45.818;15.964;2023-12-07T07:02:38;9.50;;;7.18;;
43996;SDS011;34318;45.818;15.964;2023-12-07T07:05:05;10.60;;;6.70;;
43996;SDS011;34318;45.818;15.964;2023-12-07T07:07:33;9.73;;;8.40;;
43996;SDS011;34318;45.818;15.964;2023-12-07T07:10:01;11.75;;;10.73;;
43996;SDS011;34318;45.818;15.964;2023-12-07T07:12:29;13.48;;;12.18;;
43996;SDS011;34318;45.818;15.964;2023-12-07T07:14:56;15.75;;;12.70;;
43996;SDS011;34318;45.818;15.964;2023-12-07T07:17:24;14.15;;;12.93;;
43996;SDS011;34318;45.818;15.964;2023-12-07T07:19:52;13.90;;;12.20;;
43996;SDS011;34318;45.818;15.964;2023-12-07T07:22:20;16.20;;;11.90;;
43996;SDS011;34318;45.818;15.964;2023-12-07T07:24:48;14.30;;;11.45;;
43996;SDS011;34318;45.818;15.964;2023-12-07T07:27:15;12.20;;;11.05;;
43996;SDS011;34318;45.818;15.964;2023-12-07T07:29:42;12.85;;;11.63;;
43996;SDS011;34318;45.818;15.964;2023-12-07T07:32:10;11.20;;;10.10;;
43996;SDS011;34318;45.818;15.964;2023-12-07T07:34:37;12.02;;;10.82;;
43996;SDS011;34318;45.818;15.964;2023-12-07T07:37:05;11.55;;;10.43;;
43996;SDS011;34318;45.818;15.964;2023-12-07T07:39:36;11.43;;;9.75;;
43996;SDS011;34318;45.818;15.964;2023-12-07T07:42:03;13.45;;;9.65;;
43996;SDS011;34318;45.818;15.964;2023-12-07T07:44:32;12.50;;;8.98;;
43996;SDS011;34318;45.818;15.964;2023-12-07T07:46:59;13.20;;;9.57;;
43996;SDS011;34318;45.818;15.964;2023-12-07T07:49:26;10.23;;;9.25;;
43996;SDS011;34318;45.818;15.964;2023-12-07T07:51:53;14.68;;;8.95;;
43996;SDS011;34318;45.818;15.964;2023-12-07T07:54:21;13.85;;;9.50;;
43996;SDS011;34318;45.818;15.964;2023-12-07T07:56:48;12.00;;;9.70;;
43996;SDS011;34318;45.818;15.964;2023-12-07T07:59:16;19.17;;;10.73;;
43996;SDS011;34318;45.818;15.964;2023-12-07T08:01:43;13.38;;;10.13;;
43996;SDS011;34318;45.818;15.964;2023-12-07T08:04:13;16.95;;;10.07;;
43996;SDS011;34318;45.818;15.964;2023-12-07T08:06:41;16.80;;;10.38;;
43996;SDS011;34318;45.818;15.964;2023-12-07T08:09:08;11.85;;;10.15;;
43996;SDS011;34318;45.818;15.964;2023-12-07T08:11:36;11.95;;;9.57;;
43996;SDS011;34318;45.818;15.964;2023-12-07T08:14:03;17.80;;;10.73;;
43996;SDS011;34318;45.818;15.964;2023-12-07T08:16:30;16.05;;;10.50;;
43996;SDS011;34318;45.818;15.964;2023-12-07T08:18:57;13.30;;;10.43;;
43996;SDS011;34318;45.818;15.964;2023-12-07T08:21:25;15.00;;;10.48;;
43996;SDS011;34318;45.818;15.964;2023-12-07T08:23:56;12.48;;;11.02;;
43996;SDS011;34318;45.818;15.964;2023-12-07T08:26:23;12.77;;;10.85;;
43996;SDS011;34318;45.818;15.964;2023-12-07T08:28:51;12.38;;;11.18;;
43996;SDS011;34318;45.818;15.964;2023-12-07T08:31:21;14.48;;;11.50;;
43996;SDS011;34318;45.818;15.964;2023-12-07T08:33:51;12.20;;;10.80;;
43996;SDS011;34318;45.818;15.964;2023-12-07T08:36:19;13.68;;;11.98;;
43996;SDS011;34318;45.818;15.964;2023-12-07T08:38:46;13.15;;;11.95;;
43996;SDS011;34318;45.818;15.964;2023-12-07T08:41:13;13.43;;;11.77;;
43996;SDS011;34318;45.818;15.964;2023-12-07T08:43:41;16.20;;;12.10;;
43996;SDS011;34318;45.818;15.964;2023-12-07T08:46:08;14.60;;;12.50;;
43996;SDS011;34318;45.818;15.964;2023-12-07T08:48:36;17.17;;;12.48;;
43996;SDS011;34318;45.818;15.964;2023-12-07T08:51:08;12.80;;;11.60;;
43996;SDS011;34318;45.818;15.964;2023-12-07T08:53:35;14.32;;;12.05;;
43996;SDS011;34318;45.818;15.964;2023-12-07T08:56:03;19.75;;;12.07;;
43996;SDS011;34318;45.818;15.964;2023-12-07T08:58:31;16.05;;;12.45;;
43996;SDS011;34318;45.818;15.964;2023-12-07T09:00:58;14.95;;;12.23;;
43996;SDS011;34318;45.818;15.964;2023-12-07T09:03:26;13.52;;;12.23;;
43996;SDS011;34318;45.818;15.964;2023-12-07T09:05:59;15.55;;;12.15;;
43996;SDS011;34318;45.818;15.964;2023-12-07T09:08:27;15.10;;;12.65;;
43996;SDS011;34318;45.818;15.964;2023-12-07T09:10:54;13.07;;;11.68;;
43996;SDS011;34318;45.818;15.964;2023-12-07T09:13:21;13.45;;;11.70;;
43996;SDS011;34318;45.818;15.964;2023-12-07T09:15:49;13.43;;;12.15;;
43996;SDS011;34318;45.818;15.964;2023-12-07T09:18:16;17.48;;;12.45;;
43996;SDS011;34318;45.818;15.964;2023-12-07T09:20:43;14.98;;;11.65;;
43996;SDS011;34318;45.818;15.964;2023-12-07T09:23:15;13.57;;;12.07;;
43996;SDS011;34318;45.818;15.964;2023-12-07T09:25:42;17.88;;;11.60;;
43996;SDS011;34318;45.818;15.964;2023-12-07T09:28:10;15.93;;;11.38;;
43996;SDS011;34318;45.818;15.964;2023-12-07T09:30:38;13.48;;;12.10;;
43996;SDS011;34318;45.818;15.964;2023-12-07T09:33:05;17.13;;;12.73;;
43996;SDS011;34318;45.818;15.964;2023-12-07T09:35:33;15.80;;;13.23;;
43996;SDS011;34318;45.818;15.964;2023-12-07T09:38:01;14.90;;;12.30;;
43996;SDS011;34318;45.818;15.964;2023-12-07T09:40:29;13.73;;;12.27;;
43996;SDS011;34318;45.818;15.964;2023-12-07T09:42:57;14.73;;;13.23;;
43996;SDS011;34318;45.818;15.964;2023-12-07T09:45:24;15.50;;;13.90;;
43996;SDS011;34318;45.818;15.964;2023-12-07T09:47:54;19.05;;;14.88;;
43996;SDS011;34318;45.818;15.964;2023-12-07T09:50:25;15.80;;;13.55;;
43996;SDS011;34318;45.818;15.964;2023-12-07T09:52:54;14.68;;;12.98;;
43996;SDS011;34318;45.818;15.964;2023-12-07T09:55:33;18.55;;;13.80;;
43996;SDS011;34318;45.818;15.964;2023-12-07T09:58:03;19.77;;;13.60;;
43996;SDS011;34318;45.818;15.964;2023-12-07T10:00:33;18.55;;;13.15;;
43996;SDS011;34318;45.818;15.964;2023-12-07T10:03:01;16.70;;;13.13;;
43996;SDS011;34318;45.818;15.964;2023-12-07T10:05:29;15.57;;;13.32;;
43996;SDS011;34318;45.818;15.964;2023-12-07T10:07:56;17.45;;;13.20;;
43996;SDS011;34318;45.818;15.964;2023-12-07T10:10:24;17.83;;;13.32;;
43996;SDS011;34318;45.818;15.964;2023-12-07T10:12:53;18.88;;;13.55;;
43996;SDS011;34318;45.818;15.964;2023-12-07T10:15:21;15.15;;;13.40;;
43996;SDS011;34318;45.818;15.964;2023-12-07T10:17:50;15.95;;;12.95;;
43996;SDS011;34318;45.818;15.964;2023-12-07T10:20:19;16.58;;;13.93;;
43996;SDS011;34318;45.818;15.964;2023-12-07T10:23:01;16.67;;;13.40;;
43996;SDS011;34318;45.818;15.964;2023-12-07T10:25:33;24.10;;;18.02;;
43996;SDS011;34318;45.818;15.964;2023-12-07T10:28:00;19.02;;;17.02;;
43996;SDS011;34318;45.818;15.964;2023-12-07T10:30:36;22.77;;;16.92;;
43996;SDS011;34318;45.818;15.964;2023-12-07T10:33:08;26.13;;;23.50;;
43996;SDS011;34318;45.818;15.964;2023-12-07T10:35:39;29.52;;;22.48;;
43996;SDS011;34318;45.818;15.964;2023-12-07T10:38:07;28.38;;;23.38;;
43996;SDS011;34318;45.818;15.964;2023-12-07T10:40:35;27.08;;;22.98;;
43996;SDS011;34318;45.818;15.964;2023-12-07T10:43:04;26.55;;;21.42;;
43996;SDS011;34318;45.818;15.964;2023-12-07T10:45:32;24.98;;;21.58;;
43996;SDS011;34318;45.818;15.964;2023-12-07T10:48:02;25.05;;;22.35;;
43996;SDS011;34318;45.818;15.964;2023-12-07T10:50:36;23.83;;;21.42;;
43996;SDS011;34318;45.818;15.964;2023-12-07T10:53:10;32.17;;;22.90;;
43996;SDS011;34318;45.818;15.964;2023-12-07T10:55:47;28.70;;;22.80;;
43996;SDS011;34318;45.818;15.964;2023-12-07T10:58:18;24.65;;;22.02;;
43996;SDS011;34318;45.818;15.964;2023-12-07T11:00:46;25.70;;;22.85;;
43996;SDS011;34318;45.818;15.964;2023-12-07T11:03:15;34.85;;;23.40;;
43996;SDS011;34318;45.818;15.964;2023-12-07T11:05:47;25.50;;;22.90;;
43996;SDS011;34318;45.818;15.964;2023-12-07T11:08:17;25.27;;;22.42;;
43996;SDS011;34318;45.818;15.964;2023-12-07T11:13:32;25.08;;;22.08;;
43996;SDS011;34318;45.818;15.964;2023-12-07T11:16:01;26.85;;;21.95;;
43996;SDS011;34318;45.818;15.964;2023-12-07T11:18:29;25.67;;;21.92;;
43996;SDS011;34318;45.818;15.964;2023-12-07T11:20:57;23.83;;;21.45;;
43996;SDS011;34318;45.818;15.964;2023-12-07T11:23:26;25.70;;;22.98;;
43996;SDS011;34318;45.818;15.964;2023-12-07T11:25:54;23.20;;;20.52;;
43996;SDS011;34318;45.818;15.964;2023-12-07T11:28:38;24.02;;;21.48;;
43996;SDS011;34318;45.818;15.964;2023-12-07T11:31:06;24.63;;;22.13;;
43996;SDS011;34318;45.818;15.964;2023-12-07T11:33:37;24.52;;;21.27;;
43996;SDS011;34318;45.818;15.964;2023-12-07T11:36:06;25.42;;;22.80;;
43996;SDS011;34318;45.818;15.964;2023-12-07T11:38:35;27.33;;;24.45;;
43996;SDS011;34318;45.818;15.964;2023-12-07T11:41:02;27.70;;;25.08;;
43996;SDS011;34318;45.818;15.964;2023-12-07T11:46:07;29.88;;;27.13;;
43996;SDS011;34318;45.818;15.964;2023-12-07T11:48:35;31.88;;;28.77;;
43996;SDS011;34318;45.818;15.964;2023-12-07T11:53:33;31.95;;;28.92;;
43996;SDS011;34318;45.818;15.964;2023-12-07T11:56:03;30.77;;;27.67;;
43996;SDS011;34318;45.818;15.964;2023-12-07T11:58:32;31.70;;;28.75;;
43996;SDS011;34318;45.818;15.964;2023-12-07T12:01:04;32.38;;;29.05;;
43996;SDS011;34318;45.818;15.964;2023-12-07T12:03:32;32.08;;;28.98;;
43996;SDS011;34318;45.818;15.964;2023-12-07T12:06:01;32.05;;;28.80;;
43996;SDS011;34318;45.818;15.964;2023-12-07T12:08:29;31.48;;;28.30;;
43996;SDS011;34318;45.818;15.964;2023-12-07T12:10:57;30.58;;;27.65;;
43996;SDS011;34318;45.818;15.964;2023-12-07T12:13:27;31.77;;;28.55;;
43996;SDS011;34318;45.818;15.964;2023-12-07T12:15:56;33.28;;;30.25;;
43996;SDS011;34318;45.818;15.964;2023-12-07T12:18:29;32.60;;;29.17;;
43996;SDS011;34318;45.818;15.964;2023-12-07T12:20:57;32.00;;;28.80;;
43996;SDS011;34318;45.818;15.964;2023-12-07T12:23:25;30.25;;;27.17;;
43996;SDS011;34318;45.818;15.964;2023-12-07T12:25:53;29.08;;;26.23;;
43996;SDS011;34318;45.818;15.964;2023-12-07T12:28:21;29.52;;;25.80;;
43996;SDS011;34318;45.818;15.964;2023-12-07T12:30:50;28.35;;;25.42;;
43996;SDS011;34318;45.818;15.964;2023-12-07T12:33:18;28.95;;;25.17;;
43996;SDS011;34318;45.818;15.964;2023-12-07T12:35:46;27.92;;;24.88;;
43996;SDS011;34318;45.818;15.964;2023-12-07T12:38:13;27.52;;;24.75;;
43996;SDS011;34318;45.818;15.964;2023-12-07T12:40:56;26.95;;;24.20;;
43996;SDS011;34318;45.818;15.964;2023-12-07T12:43:23;25.83;;;23.27;;
43996;SDS011;34318;45.818;15.964;2023-12-07T12:45:51;29.15;;;21.45;;
43996;SDS011;34318;45.818;15.964;2023-12-07T12:48:31;24.77;;;22.13;;
43996;SDS011;34318;45.818;15.964;2023-12-07T12:51:07;25.58;;;21.77;;
43996;SDS011;34318;45.818;15.964;2023-12-07T12:53:34;24.52;;;21.20;;
43996;SDS011;34318;45.818;15.964;2023-12-07T12:56:02;23.98;;;21.48;;
43996;SDS011;34318;45.818;15.964;2023-12-07T12:58:30;23.83;;;21.33;;
43996;SDS011;34318;45.818;15.964;2023-12-07T13:00:57;22.23;;;19.65;;
43996;SDS011;34318;45.818;15.964;2023-12-07T13:03:25;21.80;;;19.58;;
43996;SDS011;34318;45.818;15.964;2023-12-07T13:05:52;20.23;;;18.20;;
43996;SDS011;34318;45.818;15.964;2023-12-07T13:08:20;20.63;;;18.42;;
43996;SDS011;34318;45.818;15.964;2023-12-07T13:10:47;21.30;;;17.15;;
43996;SDS011;34318;45.818;15.964;2023-12-07T13:13:16;27.25;;;18.98;;
43996;SDS011;34318;45.818;15.964;2023-12-07T13:15:43;19.20;;;17.33;;
43996;SDS011;34318;45.818;15.964;2023-12-07T13:18:10;24.33;;;16.98;;
43996;SDS011;34318;45.818;15.964;2023-12-07T13:20:38;18.63;;;16.73;;
43996;SDS011;34318;45.818;15.964;2023-12-07T13:23:20;18.42;;;16.58;;
43996;SDS011;34318;45.818;15.964;2023-12-07T13:25:47;19.98;;;16.35;;
43996;SDS011;34318;45.818;15.964;2023-12-07T13:28:15;21.90;;;15.85;;
43996;SDS011;34318;45.818;15.964;2023-12-07T13:30:42;18.67;;;16.75;;
43996;SDS011;34318;45.818;15.964;2023-12-07T13:33:10;17.75;;;15.48;;
43996;SDS011;34318;45.818;15.964;2023-12-07T13:35:52;27.00;;;16.80;;
43996;SDS011;34318;45.818;15.964;2023-12-07T13:38:22;19.00;;;15.57;;
43996;SDS011;34318;45.818;15.964;2023-12-07T13:40:50;15.98;;;14.52;;
43996;SDS011;34318;45.818;15.964;2023-12-07T13:43:17;18.20;;;15.70;;
43996;SDS011;34318;45.818;15.964;2023-12-07T13:45:45;17.58;;;15.90;;
43996;SDS011;34318;45.818;15.964;2023-12-07T13:48:13;17.75;;;15.77;;
43996;SDS011;34318;45.818;15.964;2023-12-07T13:50:41;19.95;;;16.17;;
43996;SDS011;34318;45.818;15.964;2023-12-07T13:53:09;17.88;;;16.20;;
43996;SDS011;34318;45.818;15.964;2023-12-07T13:55:40;17.67;;;15.90;;
43996;SDS011;34318;45.818;15.964;2023-12-07T13:58:08;21.35;;;17.50;;
43996;SDS011;34318;45.818;15.964;2023-12-07T14:00:38;19.08;;;15.93;;
43996;SDS011;34318;45.818;15.964;2023-12-07T14:03:11;18.90;;;16.90;;
43996;SDS011;34318;45.818;15.964;2023-12-07T14:05:39;18.70;;;16.15;;
43996;SDS011;34318;45.818;15.964;2023-12-07T14:08:08;17.63;;;15.57;;
43996;SDS011;34318;45.818;15.964;2023-12-07T14:10:35;16.50;;;14.63;;
43996;SDS011;34318;45.818;15.964;2023-12-07T14:13:04;17.65;;;15.82;;
43996;SDS011;34318;45.818;15.964;2023-12-07T14:15:34;17.30;;;15.40;;
43996;SDS011;34318;45.818;15.964;2023-12-07T14:18:10;17.40;;;15.27;;
43996;SDS011;34318;45.818;15.964;2023-12-07T14:20:40;17.40;;;15.68;;
43996;SDS011;34318;45.818;15.964;2023-12-07T14:23:28;17.55;;;15.38;;
43996;SDS011;34318;45.818;15.964;2023-12-07T14:25:56;20.05;;;14.40;;
43996;SDS011;34318;45.818;15.964;2023-12-07T14:28:30;18.95;;;15.50;;
43996;SDS011;34318;45.818;15.964;2023-12-07T14:31:00;17.55;;;14.70;;
43996;SDS011;34318;45.818;15.964;2023-12-07T14:33:28;19.92;;;15.23;;
43996;SDS011;34318;45.818;15.964;2023-12-07T14:35:55;20.35;;;16.00;;
43996;SDS011;34318;45.818;15.964;2023-12-07T14:38:23;21.35;;;15.00;;